CES4526 OMDB-ZPPP
Flight info
| Callsign | CES4526 |
|---|---|
| Flight time | N/A |
| Altitude | 39000 |
| Route | OMDB/30R N0490F390 IVUR1F IVURO M428 TARBO Z440 DAMUM B524 ALPOR M504 TELEM A791 GOLOX/N0490F410 A791 CEA B465 CTG A599 LINSO/K0904S1250 A599 GULOT GULO2B ZPPP/21 |
| Aircraft | B789/H-SDE3FGILRWXY/LB2 |
Departure
| Time | 2026-04-21 06:30 |
|---|---|
| Airport | Dubai International Airport (OMDB) |
Arrival
| Time | N/A |
|---|---|
| Airport | Kunming Changshui International Airport (ZPPP) |
| Time | Latitude | Longitude | Altitude | Speed | Heading |
|---|---|---|---|---|---|
| 2026-04-21 05:54 | 25.24925 | 55.36226 | 27 ft | 0 kts | 211° |
| 2026-04-21 06:15 | 25.24928 | 55.36228 | 28 ft | 1 kts | 212° |
| 2026-04-21 06:16 | 25.24933 | 55.36231 | 28 ft | 1 kts | 212° |
| 2026-04-21 06:16 | 25.24938 | 55.36235 | 28 ft | 1 kts | 212° |
| 2026-04-21 06:16 | 25.24944 | 55.36239 | 27 ft | 1 kts | 212° |
| 2026-04-21 06:16 | 25.24949 | 55.36242 | 26 ft | 1 kts | 212° |
| 2026-04-21 06:17 | 25.24954 | 55.36246 | 31 ft | 1 kts | 212° |
| 2026-04-21 06:17 | 25.24960 | 55.36250 | 31 ft | 1 kts | 212° |
| 2026-04-21 06:17 | 25.24965 | 55.36253 | 31 ft | 1 kts | 212° |
| 2026-04-21 06:17 | 25.24975 | 55.36260 | 27 ft | 2 kts | 212° |
| 2026-04-21 06:18 | 25.24987 | 55.36269 | 28 ft | 1 kts | 189° |
| 2026-04-21 06:18 | 25.24997 | 55.36269 | 24 ft | 2 kts | 141° |
| 2026-04-21 06:18 | 25.25006 | 55.36261 | 22 ft | 2 kts | 141° |
| 2026-04-21 06:18 | 25.25011 | 55.36256 | 24 ft | 0 kts | 121° |
| 2026-04-21 06:19 | 25.25008 | 55.36262 | 22 ft | 0 kts | 121° |
| 2026-04-21 06:21 | 25.25006 | 55.36266 | 22 ft | 1 kts | 121° |
| 2026-04-21 06:21 | 25.24997 | 55.36282 | 23 ft | 3 kts | 120° |
| 2026-04-21 06:21 | 25.24983 | 55.36310 | 27 ft | 5 kts | 120° |
| 2026-04-21 06:22 | 25.24961 | 55.36349 | 28 ft | 7 kts | 121° |
| 2026-04-21 06:22 | 25.24934 | 55.36399 | 28 ft | 8 kts | 121° |
| 2026-04-21 06:22 | 25.24900 | 55.36459 | 28 ft | 10 kts | 122° |
| 2026-04-21 06:22 | 25.24861 | 55.36528 | 28 ft | 11 kts | 122° |
| 2026-04-21 06:23 | 25.24820 | 55.36608 | 28 ft | 12 kts | 116° |
| 2026-04-21 06:23 | 25.24787 | 55.36699 | 28 ft | 13 kts | 107° |
| 2026-04-21 06:23 | 25.24765 | 55.36803 | 28 ft | 14 kts | 104° |
| 2026-04-21 06:23 | 25.24721 | 55.36905 | 28 ft | 15 kts | 121° |
| 2026-04-21 06:24 | 25.24664 | 55.37007 | 28 ft | 16 kts | 122° |
| 2026-04-21 06:24 | 25.24603 | 55.37115 | 28 ft | 17 kts | 122° |
| 2026-04-21 06:24 | 25.24539 | 55.37228 | 28 ft | 18 kts | 120° |
| 2026-04-21 06:24 | 25.24474 | 55.37347 | 28 ft | 18 kts | 122° |
| 2026-04-21 06:25 | 25.24406 | 55.37470 | 28 ft | 19 kts | 121° |
| 2026-04-21 06:25 | 25.24335 | 55.37598 | 28 ft | 20 kts | 121° |
| 2026-04-21 06:25 | 25.24271 | 55.37719 | 28 ft | 14 kts | 113° |
| 2026-04-21 06:25 | 25.24299 | 55.37795 | 27 ft | 10 kts | 32° |
| 2026-04-21 06:26 | 25.24361 | 55.37839 | 28 ft | 11 kts | 33° |
| 2026-04-21 06:26 | 25.24428 | 55.37888 | 27 ft | 12 kts | 34° |
| 2026-04-21 06:26 | 25.24500 | 55.37944 | 27 ft | 13 kts | 36° |
| 2026-04-21 06:26 | 25.24575 | 55.38005 | 28 ft | 14 kts | 47° |
| 2026-04-21 06:27 | 25.24580 | 55.38097 | 27 ft | 13 kts | 101° |
| 2026-04-21 06:27 | 25.24591 | 55.38152 | 27 ft | 0 kts | 39° |
| 2026-04-21 06:28 | 25.24599 | 55.38159 | 27 ft | 3 kts | 39° |
| 2026-04-21 06:28 | 25.24621 | 55.38178 | 27 ft | 5 kts | 37° |
| 2026-04-21 06:28 | 25.24660 | 55.38203 | 27 ft | 8 kts | 24° |
| 2026-04-21 06:29 | 25.24708 | 55.38194 | 29 ft | 7 kts | 322° |
| 2026-04-21 06:29 | 25.24736 | 55.38144 | 27 ft | 9 kts | 302° |
| 2026-04-21 06:29 | 25.24739 | 55.38138 | 28 ft | 0 kts | 302° |
| 2026-04-21 06:29 | 25.24815 | 55.38005 | 28 ft | 57 kts | 302° |
| 2026-04-21 06:30 | 25.25171 | 55.37365 | 28 ft | 137 kts | 301° |
| 2026-04-21 06:30 | 25.25785 | 55.36240 | 122 ft | 196 kts | 296° |
| 2026-04-21 06:30 | 25.26415 | 55.35028 | 1484 ft | 176 kts | 303° |
| 2026-04-21 06:30 | 25.27042 | 55.33833 | 2411 ft | 188 kts | 305° |
| 2026-04-21 06:31 | 25.27777 | 55.32635 | 3347 ft | 189 kts | 307° |
| 2026-04-21 06:31 | 25.28486 | 55.31407 | 4279 ft | 195 kts | 304° |
| 2026-04-21 06:31 | 25.29219 | 55.30187 | 5190 ft | 198 kts | 313° |
| 2026-04-21 06:31 | 25.30438 | 55.29515 | 6043 ft | 204 kts | 349° |
| 2026-04-21 06:32 | 25.31876 | 55.29494 | 6891 ft | 207 kts | 1° |
| 2026-04-21 06:32 | 25.33332 | 55.29557 | 7741 ft | 212 kts | 0° |
| 2026-04-21 06:32 | 25.34779 | 55.29602 | 8611 ft | 215 kts | 359° |
| 2026-04-21 06:32 | 25.36338 | 55.29634 | 9217 ft | 236 kts | 358° |
| 2026-04-21 06:33 | 25.38067 | 55.29673 | 9706 ft | 257 kts | 359° |
| 2026-04-21 06:33 | 25.39802 | 55.30202 | 10526 ft | 266 kts | 26° |
| 2026-04-21 06:33 | 25.41247 | 55.31601 | 10948 ft | 291 kts | 49° |
| 2026-04-21 06:33 | 25.42536 | 55.33402 | 11474 ft | 312 kts | 51° |
| 2026-04-21 06:34 | 25.43937 | 55.35377 | 11880 ft | 340 kts | 50° |
| 2026-04-21 06:34 | 25.45488 | 55.37493 | 12276 ft | 368 kts | 49° |
| 2026-04-21 06:34 | 25.47168 | 55.39761 | 12652 ft | 394 kts | 50° |
| 2026-04-21 06:34 | 25.48876 | 55.42165 | 13603 ft | 398 kts | 53° |
| 2026-04-21 06:35 | 25.50486 | 55.44648 | 14426 ft | 405 kts | 57° |
| 2026-04-21 06:35 | 25.51316 | 55.46525 | 14973 ft | 411 kts | 70° |
| 2026-04-21 06:35 | 25.51877 | 55.49633 | 15815 ft | 417 kts | 88° |
| 2026-04-21 06:35 | 25.51592 | 55.52843 | 16606 ft | 422 kts | 105° |
| 2026-04-21 06:36 | 25.50488 | 55.55860 | 17390 ft | 426 kts | 121° |
| 2026-04-21 06:36 | 25.48912 | 55.58658 | 18164 ft | 431 kts | 126° |
| 2026-04-21 06:36 | 25.46607 | 55.62282 | 19057 ft | 438 kts | 127° |
| 2026-04-21 06:36 | 25.45469 | 55.64191 | 19517 ft | 442 kts | 124° |
| 2026-04-21 06:37 | 25.43371 | 55.68099 | 20410 ft | 450 kts | 120° |
| 2026-04-21 06:37 | 25.42214 | 55.71343 | 21067 ft | 458 kts | 106° |
| 2026-04-21 06:37 | 25.41697 | 55.73662 | 21484 ft | 462 kts | 104° |
| 2026-04-21 06:37 | 25.40963 | 55.77138 | 22120 ft | 467 kts | 104° |
| 2026-04-21 06:38 | 25.40235 | 55.80656 | 22698 ft | 472 kts | 104° |
| 2026-04-21 06:38 | 25.39487 | 55.84169 | 23283 ft | 477 kts | 104° |
| 2026-04-21 06:38 | 25.38710 | 55.87754 | 23797 ft | 481 kts | 104° |
| 2026-04-21 06:38 | 25.37937 | 55.91361 | 24363 ft | 483 kts | 104° |
| 2026-04-21 06:39 | 25.37165 | 55.94995 | 24901 ft | 487 kts | 104° |
| 2026-04-21 06:39 | 25.36385 | 55.98646 | 25432 ft | 489 kts | 104° |
| 2026-04-21 06:39 | 25.35595 | 56.02318 | 25947 ft | 492 kts | 104° |
| 2026-04-21 06:39 | 25.34799 | 56.06015 | 26454 ft | 495 kts | 104° |
| 2026-04-21 06:40 | 25.34001 | 56.09734 | 26937 ft | 498 kts | 104° |
| 2026-04-21 06:40 | 25.33206 | 56.13430 | 27420 ft | 501 kts | 104° |
| 2026-04-21 06:40 | 25.32232 | 56.17137 | 27871 ft | 503 kts | 111° |
| 2026-04-21 06:40 | 25.31036 | 56.20784 | 28317 ft | 506 kts | 111° |
| 2026-04-21 06:41 | 25.29814 | 56.24432 | 28764 ft | 508 kts | 111° |
| 2026-04-21 06:41 | 25.28598 | 56.28116 | 29178 ft | 511 kts | 111° |
| 2026-04-21 06:41 | 25.27392 | 56.31827 | 29564 ft | 515 kts | 111° |
| 2026-04-21 06:41 | 25.26184 | 56.35514 | 29973 ft | 517 kts | 111° |
| 2026-04-21 06:42 | 25.24944 | 56.39255 | 30282 ft | 520 kts | 111° |
| 2026-04-21 06:42 | 25.23696 | 56.43020 | 30608 ft | 523 kts | 111° |
| 2026-04-21 06:42 | 25.22447 | 56.46805 | 30916 ft | 526 kts | 111° |
| 2026-04-21 06:42 | 25.21191 | 56.50610 | 31210 ft | 529 kts | 111° |
| 2026-04-21 06:43 | 25.19923 | 56.54436 | 31515 ft | 531 kts | 111° |
| 2026-04-21 06:43 | 25.18636 | 56.58273 | 31808 ft | 533 kts | 113° |
| 2026-04-21 06:43 | 25.17193 | 56.62033 | 32163 ft | 533 kts | 113° |
| 2026-04-21 06:43 | 25.15786 | 56.65824 | 32591 ft | 532 kts | 113° |
| 2026-04-21 06:44 | 25.14386 | 56.69606 | 33010 ft | 532 kts | 113° |
| 2026-04-21 06:44 | 25.12958 | 56.73368 | 33420 ft | 531 kts | 114° |
| 2026-04-21 06:44 | 25.11520 | 56.77133 | 33843 ft | 531 kts | 113° |
| 2026-04-21 06:44 | 25.10147 | 56.80772 | 34147 ft | 532 kts | 113° |
| 2026-04-21 06:45 | 25.08743 | 56.84509 | 34341 ft | 535 kts | 113° |
| 2026-04-21 06:45 | 25.07312 | 56.88293 | 34658 ft | 535 kts | 113° |
| 2026-04-21 06:45 | 25.05865 | 56.92094 | 34902 ft | 538 kts | 113° |
| 2026-04-21 06:45 | 25.04417 | 56.95907 | 35157 ft | 540 kts | 112° |
| 2026-04-21 06:46 | 25.02968 | 56.99735 | 35398 ft | 542 kts | 112° |
| 2026-04-21 06:46 | 25.01511 | 57.03573 | 35644 ft | 544 kts | 112° |
| 2026-04-21 06:46 | 25.00042 | 57.07431 | 35896 ft | 546 kts | 112° |
| 2026-04-21 06:46 | 24.98571 | 57.11292 | 36127 ft | 547 kts | 112° |
| 2026-04-21 06:47 | 24.97115 | 57.15115 | 36413 ft | 548 kts | 112° |
| 2026-04-21 06:47 | 24.95634 | 57.19000 | 36642 ft | 550 kts | 112° |
| 2026-04-21 06:47 | 24.94149 | 57.22890 | 36866 ft | 552 kts | 111° |
| 2026-04-21 06:47 | 24.92650 | 57.26811 | 37095 ft | 554 kts | 111° |
| 2026-04-21 06:48 | 24.91150 | 57.30735 | 37339 ft | 556 kts | 111° |
| 2026-04-21 06:48 | 24.89648 | 57.34659 | 37563 ft | 558 kts | 111° |
| 2026-04-21 06:48 | 24.88147 | 57.38577 | 37794 ft | 559 kts | 111° |
| 2026-04-21 06:48 | 24.86629 | 57.42532 | 38115 ft | 559 kts | 111° |
| 2026-04-21 06:49 | 24.85114 | 57.46482 | 38347 ft | 561 kts | 110° |
| 2026-04-21 06:49 | 24.83612 | 57.50393 | 38575 ft | 562 kts | 110° |
| 2026-04-21 06:49 | 24.82092 | 57.54342 | 38878 ft | 560 kts | 110° |
| 2026-04-21 06:50 | 24.79031 | 57.62290 | 38849 ft | 561 kts | 111° |
| 2026-04-21 06:50 | 24.76046 | 57.70024 | 38851 ft | 554 kts | 110° |
| 2026-04-21 06:51 | 24.73241 | 57.77862 | 38863 ft | 546 kts | 99° |
| 2026-04-21 06:51 | 24.72024 | 57.86079 | 38868 ft | 545 kts | 93° |
| 2026-04-21 06:52 | 24.71004 | 57.94286 | 38869 ft | 545 kts | 93° |
| 2026-04-21 06:52 | 24.69956 | 58.02495 | 38864 ft | 539 kts | 93° |
| 2026-04-21 06:53 | 24.68924 | 58.10667 | 38865 ft | 539 kts | 93° |
| 2026-04-21 06:53 | 24.67877 | 58.18838 | 38866 ft | 540 kts | 93° |
| 2026-04-21 06:54 | 24.66830 | 58.27012 | 38862 ft | 538 kts | 94° |
| 2026-04-21 06:54 | 24.65784 | 58.35140 | 38860 ft | 537 kts | 94° |
| 2026-04-21 06:55 | 24.64733 | 58.43266 | 38862 ft | 537 kts | 94° |
| 2026-04-21 06:55 | 24.63676 | 58.51399 | 38868 ft | 535 kts | 94° |
| 2026-04-21 06:56 | 24.62622 | 58.59479 | 38866 ft | 533 kts | 94° |
| 2026-04-21 06:56 | 24.61565 | 58.67549 | 38865 ft | 534 kts | 94° |
| 2026-04-21 06:57 | 24.60509 | 58.75576 | 38863 ft | 534 kts | 94° |
| 2026-04-21 06:57 | 24.59442 | 58.83653 | 38863 ft | 534 kts | 94° |
| 2026-04-21 06:58 | 24.58369 | 58.91738 | 38867 ft | 534 kts | 94° |
| 2026-04-21 06:58 | 24.57292 | 58.99828 | 38860 ft | 534 kts | 94° |
| 2026-04-21 06:59 | 24.56211 | 59.07898 | 38856 ft | 532 kts | 94° |
| 2026-04-21 06:59 | 24.55133 | 59.15927 | 38854 ft | 530 kts | 94° |
| 2026-04-21 07:00 | 24.53904 | 59.23922 | 38870 ft | 533 kts | 99° |
| 2026-04-21 07:00 | 24.52211 | 59.31813 | 38868 ft | 535 kts | 99° |
| 2026-04-21 07:01 | 24.50524 | 59.39726 | 38867 ft | 529 kts | 99° |
| 2026-04-21 07:01 | 24.48002 | 59.51489 | 38869 ft | 528 kts | 99° |
| 2026-04-21 07:02 | 24.46310 | 59.59364 | 38867 ft | 530 kts | 99° |
| 2026-04-21 07:02 | 24.44620 | 59.67193 | 38862 ft | 523 kts | 100° |
| 2026-04-21 07:03 | 24.42943 | 59.74962 | 38857 ft | 525 kts | 100° |
| 2026-04-21 07:03 | 24.41249 | 59.82772 | 38860 ft | 526 kts | 100° |
| 2026-04-21 07:04 | 24.39552 | 59.90582 | 38872 ft | 525 kts | 100° |
| 2026-04-21 07:04 | 24.37861 | 59.98336 | 38869 ft | 520 kts | 100° |
| 2026-04-21 07:05 | 24.36187 | 60.06006 | 38868 ft | 521 kts | 100° |
| 2026-04-21 07:05 | 24.34493 | 60.13740 | 38869 ft | 522 kts | 100° |
| 2026-04-21 07:06 | 24.32798 | 60.21473 | 38878 ft | 520 kts | 101° |
| 2026-04-21 07:06 | 24.31105 | 60.29167 | 38877 ft | 518 kts | 101° |
| 2026-04-21 07:07 | 24.29409 | 60.36860 | 38866 ft | 520 kts | 101° |
| 2026-04-21 07:07 | 24.27714 | 60.44525 | 38871 ft | 522 kts | 101° |
| 2026-04-21 07:08 | 24.26002 | 60.52249 | 38883 ft | 519 kts | 100° |
| 2026-04-21 07:08 | 24.24299 | 60.59915 | 38879 ft | 517 kts | 100° |
| 2026-04-21 07:09 | 24.22596 | 60.67562 | 38876 ft | 517 kts | 101° |
| 2026-04-21 07:09 | 24.20886 | 60.75218 | 38886 ft | 517 kts | 101° |
| 2026-04-21 07:10 | 24.19193 | 60.82799 | 38883 ft | 513 kts | 101° |
| 2026-04-21 07:10 | 24.17495 | 60.90391 | 38885 ft | 513 kts | 101° |
| 2026-04-21 07:11 | 24.15788 | 60.97995 | 38875 ft | 515 kts | 101° |
| 2026-04-21 07:11 | 24.14072 | 61.05634 | 38886 ft | 517 kts | 101° |
| 2026-04-21 07:12 | 24.12354 | 61.13244 | 38888 ft | 513 kts | 101° |
| 2026-04-21 07:12 | 24.10644 | 61.20817 | 38885 ft | 512 kts | 101° |
| 2026-04-21 07:13 | 24.08925 | 61.28400 | 38883 ft | 512 kts | 101° |
| 2026-04-21 07:13 | 24.07645 | 61.36023 | 38911 ft | 507 kts | 91° |
| 2026-04-21 07:14 | 24.07196 | 61.43681 | 38893 ft | 506 kts | 91° |
| 2026-04-21 07:14 | 24.06743 | 61.51372 | 38892 ft | 506 kts | 91° |
| 2026-04-21 07:15 | 24.06278 | 61.59070 | 38898 ft | 508 kts | 91° |
| 2026-04-21 07:15 | 24.05815 | 61.66790 | 38901 ft | 509 kts | 91° |
| 2026-04-21 07:16 | 24.05341 | 61.74527 | 38901 ft | 510 kts | 91° |
| 2026-04-21 07:16 | 24.04870 | 61.82232 | 38894 ft | 509 kts | 91° |
| 2026-04-21 07:17 | 24.04390 | 61.89965 | 38893 ft | 509 kts | 91° |
| 2026-04-21 07:17 | 24.03909 | 61.97685 | 38895 ft | 508 kts | 91° |
| 2026-04-21 07:18 | 24.03425 | 62.05378 | 38899 ft | 506 kts | 91° |
| 2026-04-21 07:18 | 24.02941 | 62.13008 | 38891 ft | 505 kts | 91° |
| 2026-04-21 07:19 | 24.02450 | 62.20690 | 38890 ft | 506 kts | 91° |
| 2026-04-21 07:19 | 24.01954 | 62.28391 | 38902 ft | 509 kts | 92° |
| 2026-04-21 07:20 | 24.01451 | 62.36121 | 38905 ft | 510 kts | 92° |
| 2026-04-21 07:20 | 24.00945 | 62.43869 | 38906 ft | 510 kts | 92° |
| 2026-04-21 07:21 | 24.00434 | 62.51617 | 38901 ft | 510 kts | 92° |
| 2026-04-21 07:21 | 23.99923 | 62.59313 | 38901 ft | 511 kts | 93° |
| 2026-04-21 07:22 | 23.99403 | 62.67061 | 38903 ft | 511 kts | 93° |
| 2026-04-21 07:22 | 23.98881 | 62.74816 | 38905 ft | 512 kts | 93° |
| 2026-04-21 07:23 | 23.98442 | 62.81271 | 38905 ft | 512 kts | 93° |
| 2026-04-21 07:23 | 23.97821 | 62.90335 | 38894 ft | 510 kts | 94° |
| 2026-04-21 07:24 | 23.97378 | 62.96756 | 38890 ft | 508 kts | 94° |
| 2026-04-21 07:24 | 23.96845 | 63.04452 | 38887 ft | 508 kts | 94° |
| 2026-04-21 07:25 | 23.96218 | 63.13409 | 38889 ft | 509 kts | 94° |
| 2026-04-21 07:25 | 23.95761 | 63.19899 | 38897 ft | 511 kts | 94° |
| 2026-04-21 07:26 | 23.95210 | 63.27657 | 38897 ft | 511 kts | 94° |
| 2026-04-21 07:26 | 23.94656 | 63.35411 | 38893 ft | 511 kts | 94° |
| 2026-04-21 07:27 | 23.94102 | 63.43111 | 38891 ft | 511 kts | 94° |
| 2026-04-21 07:27 | 23.93540 | 63.50879 | 38899 ft | 513 kts | 94° |
| 2026-04-21 07:28 | 23.92972 | 63.58660 | 38901 ft | 513 kts | 94° |
| 2026-04-21 07:28 | 23.92399 | 63.66451 | 38897 ft | 513 kts | 95° |
| 2026-04-21 07:29 | 23.91824 | 63.74223 | 38902 ft | 513 kts | 95° |
| 2026-04-21 07:29 | 23.91244 | 63.82011 | 38904 ft | 515 kts | 95° |
| 2026-04-21 07:30 | 23.90659 | 63.89811 | 38900 ft | 514 kts | 95° |
| 2026-04-21 07:30 | 23.90071 | 63.97596 | 38888 ft | 513 kts | 95° |
| 2026-04-21 07:31 | 23.89484 | 64.05317 | 38893 ft | 512 kts | 95° |
| 2026-04-21 07:31 | 23.88891 | 64.13069 | 38892 ft | 511 kts | 95° |
| 2026-04-21 07:32 | 23.88295 | 64.20807 | 38884 ft | 512 kts | 95° |
| 2026-04-21 07:32 | 23.87693 | 64.28568 | 38889 ft | 513 kts | 95° |
| 2026-04-21 07:33 | 23.87086 | 64.36352 | 38897 ft | 514 kts | 95° |
| 2026-04-21 07:33 | 23.86476 | 64.44114 | 38900 ft | 511 kts | 95° |
| 2026-04-21 07:34 | 23.85868 | 64.51802 | 38893 ft | 510 kts | 95° |
| 2026-04-21 07:34 | 23.85253 | 64.59522 | 38891 ft | 510 kts | 95° |
| 2026-04-21 07:35 | 23.84634 | 64.67255 | 38891 ft | 510 kts | 95° |
| 2026-04-21 07:35 | 23.84012 | 64.74974 | 38887 ft | 510 kts | 95° |
| 2026-04-21 07:36 | 23.83390 | 64.82693 | 38889 ft | 510 kts | 94° |
| 2026-04-21 07:36 | 23.83375 | 64.90452 | 38894 ft | 511 kts | 89° |
| 2026-04-21 07:37 | 23.83437 | 64.98175 | 38903 ft | 512 kts | 90° |
| 2026-04-21 07:37 | 23.83472 | 65.05939 | 38893 ft | 510 kts | 90° |
| 2026-04-21 07:38 | 23.83519 | 65.13686 | 38890 ft | 509 kts | 90° |
| 2026-04-21 07:38 | 23.83552 | 65.21421 | 38889 ft | 509 kts | 90° |
| 2026-04-21 07:39 | 23.83588 | 65.29122 | 38885 ft | 506 kts | 90° |
| 2026-04-21 07:39 | 23.83615 | 65.36814 | 38885 ft | 506 kts | 90° |
| 2026-04-21 07:40 | 23.83641 | 65.44505 | 38892 ft | 506 kts | 90° |
| 2026-04-21 07:40 | 23.83662 | 65.52183 | 38885 ft | 505 kts | 90° |
| 2026-04-21 07:41 | 23.83680 | 65.59858 | 38887 ft | 505 kts | 90° |
| 2026-04-21 07:41 | 23.83694 | 65.67554 | 38893 ft | 509 kts | 90° |
| 2026-04-21 07:42 | 23.83704 | 65.75250 | 38894 ft | 510 kts | 90° |
| 2026-04-21 07:42 | 23.83710 | 65.83008 | 38896 ft | 511 kts | 90° |
| 2026-04-21 07:43 | 23.83713 | 65.90762 | 38892 ft | 510 kts | 90° |
| 2026-04-21 07:43 | 23.83711 | 65.98516 | 38897 ft | 510 kts | 90° |
| 2026-04-21 07:44 | 23.83706 | 66.06284 | 38894 ft | 511 kts | 90° |
| 2026-04-21 07:44 | 23.83696 | 66.14061 | 38890 ft | 512 kts | 90° |
| 2026-04-21 07:45 | 23.83684 | 66.21795 | 38882 ft | 511 kts | 90° |
| 2026-04-21 07:45 | 23.83666 | 66.29548 | 38881 ft | 510 kts | 90° |
| 2026-04-21 07:46 | 23.83646 | 66.37286 | 38881 ft | 508 kts | 90° |
| 2026-04-21 07:46 | 23.83621 | 66.45001 | 38883 ft | 508 kts | 90° |
| 2026-04-21 07:47 | 23.83592 | 66.52741 | 38884 ft | 510 kts | 90° |
| 2026-04-21 07:47 | 23.83559 | 66.60502 | 38883 ft | 512 kts | 90° |
| 2026-04-21 07:48 | 23.83524 | 66.68269 | 38883 ft | 510 kts | 90° |
| 2026-04-21 07:48 | 23.83483 | 66.75981 | 38882 ft | 510 kts | 90° |
| 2026-04-21 07:49 | 23.83439 | 66.83729 | 38882 ft | 510 kts | 90° |
| 2026-04-21 07:49 | 23.83391 | 66.91473 | 38892 ft | 509 kts | 90° |
| 2026-04-21 07:50 | 23.83364 | 66.99198 | 38886 ft | 506 kts | 85° |
| 2026-04-21 07:50 | 23.84447 | 67.06758 | 38897 ft | 504 kts | 78° |
| 2026-04-21 07:51 | 23.85711 | 67.14244 | 38897 ft | 505 kts | 78° |
| 2026-04-21 07:51 | 23.86949 | 67.21801 | 38904 ft | 505 kts | 78° |
| 2026-04-21 07:52 | 23.88203 | 67.29359 | 38883 ft | 506 kts | 78° |
| 2026-04-21 07:52 | 23.89447 | 67.36944 | 38887 ft | 507 kts | 78° |
| 2026-04-21 07:53 | 23.90693 | 67.44530 | 38881 ft | 507 kts | 78° |
| 2026-04-21 07:53 | 23.91933 | 67.52127 | 38885 ft | 509 kts | 78° |
| 2026-04-21 07:54 | 23.93177 | 67.59757 | 38884 ft | 510 kts | 78° |
| 2026-04-21 07:54 | 23.94410 | 67.67351 | 38883 ft | 511 kts | 78° |
| 2026-04-21 07:55 | 23.95647 | 67.74993 | 38878 ft | 510 kts | 78° |
| 2026-04-21 07:55 | 23.96878 | 67.82620 | 38876 ft | 509 kts | 78° |
| 2026-04-21 07:56 | 23.98103 | 67.90240 | 38871 ft | 508 kts | 78° |
| 2026-04-21 07:56 | 23.99323 | 67.97847 | 38861 ft | 507 kts | 78° |
| 2026-04-21 07:57 | 24.00536 | 68.05443 | 38862 ft | 507 kts | 78° |
| 2026-04-21 07:57 | 24.01750 | 68.13061 | 38863 ft | 509 kts | 78° |
| 2026-04-21 07:58 | 24.02963 | 68.20705 | 38865 ft | 510 kts | 78° |
| 2026-04-21 07:58 | 24.04168 | 68.28323 | 38867 ft | 507 kts | 78° |
| 2026-04-21 07:59 | 24.05365 | 68.35912 | 38860 ft | 506 kts | 78° |
| 2026-04-21 07:59 | 24.06550 | 68.43454 | 38862 ft | 507 kts | 78° |
| 2026-04-21 08:00 | 24.07743 | 68.51069 | 38857 ft | 508 kts | 78° |
| 2026-04-21 08:00 | 24.08932 | 68.58688 | 38860 ft | 506 kts | 78° |
| 2026-04-21 08:01 | 24.10111 | 68.66266 | 38856 ft | 505 kts | 78° |
| 2026-04-21 08:02 | 24.11696 | 68.77655 | 38868 ft | 506 kts | 88° |
| 2026-04-21 08:02 | 24.11612 | 68.85387 | 38857 ft | 509 kts | 90° |
| 2026-04-21 08:03 | 24.11491 | 68.93109 | 38856 ft | 507 kts | 89° |
| 2026-04-21 08:03 | 24.11387 | 69.00820 | 38856 ft | 506 kts | 90° |
| 2026-04-21 08:04 | 24.11265 | 69.08516 | 38855 ft | 506 kts | 89° |
| 2026-04-21 08:04 | 24.11149 | 69.16182 | 38859 ft | 506 kts | 90° |
| 2026-04-21 08:05 | 24.11023 | 69.23884 | 38849 ft | 506 kts | 90° |
| 2026-04-21 08:05 | 24.10897 | 69.31582 | 38850 ft | 505 kts | 90° |
| 2026-04-21 08:06 | 24.10765 | 69.39273 | 38848 ft | 505 kts | 90° |
| 2026-04-21 08:06 | 24.10630 | 69.46946 | 38844 ft | 504 kts | 90° |
| 2026-04-21 08:07 | 24.10492 | 69.54632 | 38849 ft | 506 kts | 90° |
| 2026-04-21 08:07 | 24.10348 | 69.62316 | 38851 ft | 504 kts | 90° |
| 2026-04-21 08:08 | 24.10203 | 69.69932 | 38854 ft | 504 kts | 90° |
| 2026-04-21 08:08 | 24.10053 | 69.77598 | 38853 ft | 503 kts | 90° |
| 2026-04-21 08:09 | 24.09925 | 69.83976 | 38855 ft | 504 kts | 90° |
| 2026-04-21 08:09 | 24.09768 | 69.91628 | 38856 ft | 502 kts | 90° |
| 2026-04-21 08:10 | 24.09608 | 69.99265 | 38859 ft | 502 kts | 90° |
| 2026-04-21 08:10 | 24.09444 | 70.06911 | 38859 ft | 502 kts | 90° |
| 2026-04-21 08:11 | 24.09248 | 70.15799 | 38862 ft | 503 kts | 90° |
| 2026-04-21 08:11 | 24.09075 | 70.23451 | 38860 ft | 503 kts | 90° |
| 2026-04-21 08:12 | 24.08928 | 70.29853 | 38858 ft | 502 kts | 90° |
| 2026-04-21 08:12 | 24.08750 | 70.37433 | 38862 ft | 501 kts | 90° |
| 2026-04-21 08:13 | 24.08567 | 70.45070 | 38859 ft | 501 kts | 90° |
| 2026-04-21 08:13 | 24.08380 | 70.52713 | 38855 ft | 502 kts | 90° |
| 2026-04-21 08:14 | 24.08190 | 70.60334 | 38855 ft | 500 kts | 90° |
| 2026-04-21 08:14 | 24.07996 | 70.67935 | 38853 ft | 499 kts | 90° |
| 2026-04-21 08:15 | 24.07799 | 70.75537 | 38850 ft | 500 kts | 90° |
| 2026-04-21 08:15 | 24.07599 | 70.83105 | 38850 ft | 500 kts | 90° |
| 2026-04-21 08:16 | 24.07394 | 70.90718 | 38857 ft | 499 kts | 90° |
| 2026-04-21 08:16 | 24.07185 | 70.98308 | 38856 ft | 498 kts | 90° |
| 2026-04-21 08:17 | 24.06976 | 71.05842 | 38854 ft | 499 kts | 90° |
| 2026-04-21 08:17 | 24.06762 | 71.13437 | 38861 ft | 500 kts | 90° |
| 2026-04-21 08:18 | 24.06544 | 71.21050 | 38855 ft | 500 kts | 91° |
| 2026-04-21 08:18 | 24.06322 | 71.28675 | 38858 ft | 501 kts | 91° |
| 2026-04-21 08:19 | 24.06095 | 71.36302 | 38853 ft | 502 kts | 91° |
| 2026-04-21 08:19 | 24.05865 | 71.43920 | 38853 ft | 501 kts | 91° |
| 2026-04-21 08:20 | 24.05632 | 71.51526 | 38851 ft | 500 kts | 91° |
| 2026-04-21 08:20 | 24.05397 | 71.59077 | 38843 ft | 499 kts | 91° |
| 2026-04-21 08:21 | 24.05156 | 71.66670 | 38840 ft | 499 kts | 91° |
| 2026-04-21 08:21 | 24.04912 | 71.74259 | 38835 ft | 498 kts | 91° |
| 2026-04-21 08:22 | 24.04665 | 71.81834 | 38832 ft | 498 kts | 91° |
| 2026-04-21 08:22 | 24.04416 | 71.89361 | 38827 ft | 499 kts | 91° |
| 2026-04-21 08:23 | 24.04160 | 71.96968 | 38837 ft | 501 kts | 91° |
| 2026-04-21 08:23 | 24.03899 | 72.04604 | 38838 ft | 502 kts | 91° |
| 2026-04-21 08:24 | 24.03635 | 72.12237 | 38841 ft | 501 kts | 91° |
| 2026-04-21 08:24 | 24.03368 | 72.19839 | 38839 ft | 500 kts | 91° |
| 2026-04-21 08:25 | 24.03098 | 72.27427 | 38843 ft | 499 kts | 91° |
| 2026-04-21 08:25 | 24.02825 | 72.34984 | 38842 ft | 500 kts | 91° |
| 2026-04-21 08:26 | 24.02547 | 72.42588 | 38845 ft | 500 kts | 91° |
| 2026-04-21 08:26 | 24.02265 | 72.50194 | 38845 ft | 500 kts | 91° |
| 2026-04-21 08:27 | 24.01979 | 72.57802 | 38851 ft | 500 kts | 91° |
| 2026-04-21 08:27 | 24.01689 | 72.65419 | 38852 ft | 501 kts | 92° |
| 2026-04-21 08:28 | 24.01736 | 72.73037 | 38843 ft | 501 kts | 89° |
| 2026-04-21 08:28 | 24.01807 | 72.80676 | 38847 ft | 502 kts | 89° |
| 2026-04-21 08:29 | 24.01914 | 72.88280 | 38858 ft | 503 kts | 89° |
| 2026-04-21 08:29 | 24.01994 | 72.95951 | 38864 ft | 504 kts | 89° |
| 2026-04-21 08:30 | 24.02083 | 73.03628 | 38858 ft | 505 kts | 89° |
| 2026-04-21 08:30 | 24.02161 | 73.11299 | 38866 ft | 504 kts | 89° |
| 2026-04-21 08:31 | 24.02239 | 73.18947 | 38865 ft | 503 kts | 89° |
| 2026-04-21 08:31 | 24.02311 | 73.26544 | 38869 ft | 502 kts | 89° |
| 2026-04-21 08:32 | 24.02381 | 73.34182 | 38870 ft | 504 kts | 89° |
| 2026-04-21 08:32 | 24.02446 | 73.41872 | 38879 ft | 506 kts | 89° |
| 2026-04-21 08:33 | 24.02508 | 73.49562 | 38882 ft | 506 kts | 89° |
| 2026-04-21 08:33 | 24.02566 | 73.57259 | 38882 ft | 506 kts | 89° |
| 2026-04-21 08:34 | 24.02621 | 73.64955 | 38878 ft | 506 kts | 89° |
| 2026-04-21 08:34 | 24.02671 | 73.72673 | 38875 ft | 509 kts | 90° |
| 2026-04-21 08:35 | 24.02720 | 73.80382 | 38870 ft | 509 kts | 90° |
| 2026-04-21 08:35 | 24.02764 | 73.88128 | 38874 ft | 509 kts | 90° |
| 2026-04-21 08:36 | 24.02805 | 73.95884 | 38881 ft | 510 kts | 90° |
| 2026-04-21 08:36 | 24.02842 | 74.03649 | 38875 ft | 512 kts | 90° |
| 2026-04-21 08:37 | 24.02888 | 74.11463 | 38884 ft | 513 kts | 89° |
| 2026-04-21 08:37 | 24.03040 | 74.19252 | 38875 ft | 511 kts | 89° |
| 2026-04-21 08:38 | 24.03130 | 74.27019 | 38881 ft | 510 kts | 89° |
| 2026-04-21 08:38 | 24.03245 | 74.34739 | 38880 ft | 511 kts | 89° |
| 2026-04-21 08:39 | 24.03344 | 74.42568 | 38896 ft | 517 kts | 90° |
| 2026-04-21 08:39 | 24.03445 | 74.50441 | 38904 ft | 517 kts | 90° |
| 2026-04-21 08:40 | 24.03540 | 74.58292 | 38904 ft | 515 kts | 90° |
| 2026-04-21 08:40 | 24.03631 | 74.66127 | 38896 ft | 514 kts | 90° |
| 2026-04-21 08:41 | 24.03556 | 74.73932 | 38913 ft | 512 kts | 99° |
| 2026-04-21 08:41 | 24.01746 | 74.81468 | 38916 ft | 514 kts | 108° |
| 2026-04-21 08:42 | 23.99635 | 74.88939 | 38915 ft | 514 kts | 108° |
| 2026-04-21 08:42 | 23.97552 | 74.96365 | 38914 ft | 514 kts | 108° |
| 2026-04-21 08:43 | 23.95443 | 75.03834 | 38895 ft | 514 kts | 109° |
| 2026-04-21 08:43 | 23.93314 | 75.11367 | 38910 ft | 521 kts | 109° |
| 2026-04-21 08:44 | 23.91170 | 75.18943 | 38913 ft | 520 kts | 109° |
| 2026-04-21 08:44 | 23.89043 | 75.26435 | 38906 ft | 519 kts | 109° |
| 2026-04-21 08:45 | 23.86904 | 75.33958 | 38903 ft | 518 kts | 110° |
| 2026-04-21 08:45 | 23.84765 | 75.41466 | 38895 ft | 518 kts | 110° |
| 2026-04-21 08:46 | 23.82615 | 75.48998 | 38897 ft | 521 kts | 110° |
| 2026-04-21 08:46 | 23.80449 | 75.56569 | 38900 ft | 522 kts | 110° |
| 2026-04-21 08:47 | 23.78280 | 75.64136 | 38901 ft | 522 kts | 110° |
| 2026-04-21 08:47 | 23.76118 | 75.71662 | 38903 ft | 522 kts | 110° |
| 2026-04-21 08:48 | 23.73943 | 75.79222 | 38897 ft | 522 kts | 110° |
| 2026-04-21 08:48 | 23.71757 | 75.86800 | 38884 ft | 523 kts | 111° |
| 2026-04-21 08:49 | 23.69567 | 75.94380 | 38875 ft | 523 kts | 111° |
| 2026-04-21 08:49 | 23.67375 | 76.01947 | 38874 ft | 523 kts | 111° |
| 2026-04-21 08:50 | 23.65166 | 76.09507 | 38861 ft | 523 kts | 111° |
| 2026-04-21 08:50 | 23.62972 | 76.17023 | 38871 ft | 523 kts | 112° |
| 2026-04-21 08:51 | 23.60753 | 76.24593 | 38858 ft | 525 kts | 112° |
| 2026-04-21 08:51 | 23.58532 | 76.32168 | 38860 ft | 524 kts | 112° |
| 2026-04-21 08:52 | 23.56308 | 76.39732 | 38850 ft | 523 kts | 112° |
| 2026-04-21 08:52 | 23.54084 | 76.47282 | 38846 ft | 522 kts | 112° |
| 2026-04-21 08:53 | 23.51861 | 76.54814 | 38854 ft | 524 kts | 112° |
| 2026-04-21 08:53 | 23.49616 | 76.62402 | 38856 ft | 526 kts | 112° |
| 2026-04-21 08:54 | 23.47363 | 76.70007 | 38850 ft | 530 kts | 114° |
| 2026-04-21 08:54 | 23.45104 | 76.77614 | 38853 ft | 531 kts | 114° |
| 2026-04-21 08:55 | 23.42832 | 76.85257 | 38858 ft | 529 kts | 114° |
| 2026-04-21 08:55 | 23.40551 | 76.92899 | 38854 ft | 533 kts | 115° |
| 2026-04-21 08:56 | 23.38257 | 77.00587 | 38858 ft | 534 kts | 115° |
| 2026-04-21 08:56 | 23.35955 | 77.08276 | 38858 ft | 534 kts | 115° |
| 2026-04-21 08:57 | 23.33652 | 77.15957 | 38859 ft | 534 kts | 115° |
| 2026-04-21 08:57 | 23.31348 | 77.23629 | 38857 ft | 534 kts | 115° |
| 2026-04-21 08:58 | 23.29045 | 77.31330 | 38857 ft | 539 kts | 112° |
| 2026-04-21 08:58 | 23.28317 | 77.35363 | 38871 ft | 549 kts | 101° |
| 2026-04-21 08:58 | 23.28089 | 77.39536 | 38858 ft | 554 kts | 98° |
| 2026-04-21 08:59 | 23.27800 | 77.46491 | 38863 ft | 554 kts | 98° |
| 2026-04-21 08:59 | 23.27462 | 77.54868 | 38860 ft | 554 kts | 98° |
| 2026-04-21 09:00 | 23.27048 | 77.64609 | 38849 ft | 557 kts | 99° |
| 2026-04-21 09:00 | 23.26750 | 77.71687 | 38853 ft | 559 kts | 99° |
| 2026-04-21 09:01 | 23.26387 | 77.80127 | 38855 ft | 560 kts | 99° |
| 2026-04-21 09:01 | 23.26021 | 77.88551 | 38854 ft | 561 kts | 99° |
| 2026-04-21 09:02 | 23.25649 | 77.97033 | 38846 ft | 561 kts | 100° |
| 2026-04-21 09:02 | 23.25268 | 78.05542 | 38845 ft | 564 kts | 99° |
| 2026-04-21 09:03 | 23.24691 | 78.18315 | 38841 ft | 563 kts | 100° |
| 2026-04-21 09:03 | 23.24302 | 78.26821 | 38843 ft | 563 kts | 100° |
| 2026-04-21 09:04 | 23.23909 | 78.35269 | 38841 ft | 562 kts | 100° |
| 2026-04-21 09:04 | 23.23510 | 78.43771 | 38838 ft | 562 kts | 100° |
| 2026-04-21 09:05 | 23.23106 | 78.52265 | 38834 ft | 563 kts | 100° |
| 2026-04-21 09:05 | 23.22697 | 78.60769 | 38835 ft | 562 kts | 100° |
| 2026-04-21 09:06 | 23.22284 | 78.69267 | 38829 ft | 563 kts | 100° |
| 2026-04-21 09:06 | 23.22025 | 78.77754 | 38843 ft | 568 kts | 97° |
| 2026-04-21 09:07 | 23.21868 | 78.86356 | 38853 ft | 569 kts | 98° |
| 2026-04-21 09:07 | 23.21758 | 78.94954 | 38847 ft | 568 kts | 97° |
| 2026-04-21 09:08 | 23.21618 | 79.03533 | 38841 ft | 567 kts | 98° |
| 2026-04-21 09:08 | 23.21482 | 79.12120 | 38836 ft | 570 kts | 97° |
| 2026-04-21 09:09 | 23.21342 | 79.20750 | 38833 ft | 570 kts | 98° |
| 2026-04-21 09:09 | 23.21192 | 79.29377 | 38831 ft | 570 kts | 97° |
| 2026-04-21 09:10 | 23.21043 | 79.37987 | 38828 ft | 569 kts | 98° |
| 2026-04-21 09:10 | 23.20885 | 79.46592 | 38822 ft | 569 kts | 98° |
| 2026-04-21 09:11 | 23.20725 | 79.55208 | 38824 ft | 570 kts | 98° |
| 2026-04-21 09:11 | 23.20378 | 79.63798 | 38821 ft | 570 kts | 99° |
| 2026-04-21 09:12 | 23.20063 | 79.72351 | 38829 ft | 570 kts | 100° |
| 2026-04-21 09:12 | 23.19668 | 79.80945 | 38821 ft | 569 kts | 99° |
| 2026-04-21 09:13 | 23.19317 | 79.89525 | 38821 ft | 567 kts | 100° |
| 2026-04-21 09:13 | 23.18932 | 79.98083 | 38823 ft | 566 kts | 100° |
| 2026-04-21 09:14 | 23.18560 | 80.06644 | 38822 ft | 567 kts | 100° |
| 2026-04-21 09:14 | 23.18116 | 80.15195 | 38822 ft | 567 kts | 101° |
| 2026-04-21 09:15 | 23.17674 | 80.23755 | 38827 ft | 567 kts | 100° |
| 2026-04-21 09:15 | 23.17231 | 80.32313 | 38827 ft | 566 kts | 101° |
| 2026-04-21 09:16 | 23.16776 | 80.40865 | 38819 ft | 566 kts | 101° |
| 2026-04-21 09:16 | 23.16328 | 80.49352 | 38810 ft | 565 kts | 101° |
| 2026-04-21 09:17 | 23.15867 | 80.57872 | 38814 ft | 564 kts | 101° |
| 2026-04-21 09:17 | 23.15405 | 80.66391 | 38804 ft | 565 kts | 101° |
| 2026-04-21 09:18 | 23.14938 | 80.74909 | 38802 ft | 563 kts | 101° |
| 2026-04-21 09:18 | 23.14476 | 80.83403 | 38798 ft | 563 kts | 101° |
| 2026-04-21 09:19 | 23.14019 | 80.91897 | 38784 ft | 563 kts | 101° |
| 2026-04-21 09:19 | 23.13551 | 81.00380 | 38789 ft | 562 kts | 101° |
| 2026-04-21 09:20 | 23.13082 | 81.08864 | 38779 ft | 562 kts | 101° |
| 2026-04-21 09:20 | 23.12607 | 81.17345 | 38779 ft | 563 kts | 101° |
| 2026-04-21 09:21 | 23.12128 | 81.25825 | 38781 ft | 563 kts | 101° |
| 2026-04-21 09:21 | 23.11645 | 81.34307 | 38782 ft | 562 kts | 101° |
| 2026-04-21 09:22 | 23.11159 | 81.42736 | 38774 ft | 562 kts | 101° |
| 2026-04-21 09:22 | 23.10667 | 81.51216 | 38771 ft | 562 kts | 101° |
| 2026-04-21 09:23 | 23.10169 | 81.59700 | 38771 ft | 563 kts | 101° |
| 2026-04-21 09:23 | 23.09667 | 81.68188 | 38772 ft | 563 kts | 101° |
| 2026-04-21 09:24 | 23.09160 | 81.76678 | 38772 ft | 564 kts | 101° |
| 2026-04-21 09:24 | 23.08648 | 81.85178 | 38771 ft | 563 kts | 101° |
| 2026-04-21 09:25 | 23.08133 | 81.93657 | 38763 ft | 562 kts | 101° |
| 2026-04-21 09:25 | 23.07613 | 82.02119 | 38757 ft | 562 kts | 101° |
| 2026-04-21 09:26 | 23.07089 | 82.10594 | 38751 ft | 562 kts | 101° |
| 2026-04-21 09:26 | 23.06636 | 82.19027 | 38756 ft | 564 kts | 99° |
| 2026-04-21 09:27 | 23.06239 | 82.27522 | 38750 ft | 563 kts | 100° |
| 2026-04-21 09:27 | 23.05882 | 82.36019 | 38751 ft | 563 kts | 99° |
| 2026-04-21 09:28 | 23.05504 | 82.44518 | 38739 ft | 563 kts | 100° |
| 2026-04-21 09:28 | 23.05123 | 82.53020 | 38741 ft | 564 kts | 99° |
| 2026-04-21 09:29 | 23.04742 | 82.61529 | 38733 ft | 563 kts | 100° |
| 2026-04-21 09:29 | 23.04351 | 82.70024 | 38740 ft | 564 kts | 100° |
| 2026-04-21 09:30 | 23.03960 | 82.78530 | 38727 ft | 564 kts | 100° |
| 2026-04-21 09:30 | 23.03564 | 82.86974 | 38723 ft | 563 kts | 100° |
| 2026-04-21 09:31 | 23.03164 | 82.95451 | 38725 ft | 561 kts | 100° |
| 2026-04-21 09:31 | 23.02758 | 83.03908 | 38723 ft | 560 kts | 100° |
| 2026-04-21 09:32 | 23.02349 | 83.12369 | 38724 ft | 561 kts | 100° |
| 2026-04-21 09:32 | 23.01934 | 83.20853 | 38737 ft | 564 kts | 100° |
| 2026-04-21 09:33 | 23.01513 | 83.29379 | 38750 ft | 565 kts | 100° |
| 2026-04-21 09:33 | 23.01088 | 83.37886 | 38759 ft | 564 kts | 100° |
| 2026-04-21 09:34 | 23.00658 | 83.46379 | 38774 ft | 563 kts | 100° |
| 2026-04-21 09:34 | 23.00229 | 83.54804 | 38772 ft | 562 kts | 100° |
| 2026-04-21 09:35 | 22.99790 | 83.63301 | 38766 ft | 565 kts | 100° |
| 2026-04-21 09:35 | 22.99347 | 83.71827 | 38771 ft | 565 kts | 100° |
| 2026-04-21 09:36 | 22.98897 | 83.80346 | 38777 ft | 565 kts | 100° |
| 2026-04-21 09:36 | 22.98446 | 83.88854 | 38785 ft | 561 kts | 100° |
| 2026-04-21 09:37 | 22.97990 | 83.97291 | 38774 ft | 560 kts | 100° |
| 2026-04-21 09:37 | 22.97534 | 84.05727 | 38783 ft | 560 kts | 100° |
| 2026-04-21 09:38 | 22.97055 | 84.14014 | 38793 ft | 559 kts | 103° |
| 2026-04-21 09:38 | 22.96458 | 84.22388 | 38808 ft | 561 kts | 101° |
| 2026-04-21 09:39 | 22.95856 | 84.30797 | 38793 ft | 561 kts | 102° |
| 2026-04-21 09:39 | 22.95231 | 84.39235 | 38801 ft | 563 kts | 101° |
| 2026-04-21 09:40 | 22.94621 | 84.47692 | 38799 ft | 562 kts | 102° |
| 2026-04-21 09:40 | 22.93987 | 84.56136 | 38802 ft | 562 kts | 101° |
| 2026-04-21 09:41 | 22.93366 | 84.64574 | 38802 ft | 561 kts | 102° |
| 2026-04-21 09:41 | 22.92728 | 84.73006 | 38804 ft | 559 kts | 101° |
| 2026-04-21 09:42 | 22.92102 | 84.81345 | 38801 ft | 558 kts | 101° |
| 2026-04-21 09:42 | 22.91461 | 84.89726 | 38813 ft | 558 kts | 101° |
| 2026-04-21 09:43 | 22.90819 | 84.98126 | 38821 ft | 558 kts | 101° |
| 2026-04-21 09:43 | 22.90171 | 85.06511 | 38822 ft | 558 kts | 101° |
| 2026-04-21 09:44 | 22.89520 | 85.14903 | 38818 ft | 558 kts | 101° |
| 2026-04-21 09:44 | 22.88983 | 85.21875 | 38819 ft | 559 kts | 101° |
| 2026-04-21 09:45 | 22.88222 | 85.31704 | 38820 ft | 559 kts | 101° |
| 2026-04-21 09:45 | 22.87566 | 85.40100 | 38820 ft | 559 kts | 101° |
| 2026-04-21 09:46 | 22.87017 | 85.47091 | 38805 ft | 560 kts | 101° |
| 2026-04-21 09:46 | 22.86350 | 85.55522 | 38808 ft | 561 kts | 101° |
| 2026-04-21 09:47 | 22.85680 | 85.63958 | 38798 ft | 561 kts | 101° |
| 2026-04-21 09:47 | 22.85003 | 85.72385 | 38806 ft | 561 kts | 101° |
| 2026-04-21 09:48 | 22.84323 | 85.80820 | 38770 ft | 561 kts | 101° |
| 2026-04-21 09:48 | 22.83643 | 85.89195 | 38736 ft | 561 kts | 101° |
| 2026-04-21 09:49 | 22.82953 | 85.97638 | 38722 ft | 561 kts | 101° |
| 2026-04-21 09:49 | 22.82259 | 86.06071 | 38699 ft | 561 kts | 101° |
| 2026-04-21 09:50 | 22.81680 | 86.13072 | 38695 ft | 560 kts | 101° |
| 2026-04-21 09:50 | 22.81053 | 86.22950 | 38695 ft | 563 kts | 99° |
| 2026-04-21 09:51 | 22.80553 | 86.31422 | 38749 ft | 564 kts | 99° |
| 2026-04-21 09:51 | 22.80122 | 86.39924 | 38740 ft | 565 kts | 99° |
| 2026-04-21 09:52 | 22.79643 | 86.48365 | 38740 ft | 564 kts | 99° |
| 2026-04-21 09:52 | 22.79183 | 86.56867 | 38715 ft | 565 kts | 99° |
| 2026-04-21 09:53 | 22.78709 | 86.65321 | 38705 ft | 560 kts | 99° |
| 2026-04-21 09:53 | 22.78236 | 86.73732 | 38700 ft | 559 kts | 99° |
| 2026-04-21 09:54 | 22.77759 | 86.82143 | 38690 ft | 559 kts | 99° |
| 2026-04-21 09:54 | 22.77277 | 86.90549 | 38689 ft | 559 kts | 99° |
| 2026-04-21 09:55 | 22.76793 | 86.98911 | 38686 ft | 560 kts | 99° |
| 2026-04-21 09:55 | 22.76301 | 87.07344 | 38687 ft | 561 kts | 99° |
| 2026-04-21 09:56 | 22.75805 | 87.15780 | 38674 ft | 562 kts | 99° |
| 2026-04-21 09:56 | 22.75306 | 87.24190 | 38672 ft | 556 kts | 98° |
| 2026-04-21 09:57 | 22.74805 | 87.32528 | 38659 ft | 554 kts | 98° |
| 2026-04-21 09:57 | 22.74301 | 87.40863 | 38660 ft | 555 kts | 98° |
| 2026-04-21 09:58 | 22.73791 | 87.49219 | 38662 ft | 556 kts | 98° |
| 2026-04-21 09:58 | 22.73277 | 87.57586 | 38663 ft | 556 kts | 99° |
| 2026-04-21 09:59 | 22.72761 | 87.65899 | 38670 ft | 556 kts | 99° |
| 2026-04-21 09:59 | 22.72237 | 87.74259 | 38662 ft | 558 kts | 98° |
| 2026-04-21 10:00 | 22.71707 | 87.82677 | 38666 ft | 560 kts | 98° |
| 2026-04-21 10:00 | 22.71171 | 87.91101 | 38670 ft | 560 kts | 98° |
| 2026-04-21 10:01 | 22.70631 | 87.99525 | 38671 ft | 560 kts | 98° |
| 2026-04-21 10:01 | 22.70087 | 88.07935 | 38675 ft | 559 kts | 98° |
| 2026-04-21 10:02 | 22.69268 | 88.20488 | 38674 ft | 556 kts | 98° |
| 2026-04-21 10:03 | 22.68716 | 88.28841 | 38681 ft | 555 kts | 98° |
| 2026-04-21 10:03 | 22.68165 | 88.37137 | 38684 ft | 556 kts | 98° |
| 2026-04-21 10:04 | 22.67537 | 88.45469 | 38693 ft | 552 kts | 105° |
| 2026-04-21 10:04 | 22.66181 | 88.53646 | 38695 ft | 554 kts | 105° |
| 2026-04-21 10:05 | 22.64816 | 88.61871 | 38697 ft | 555 kts | 105° |
| 2026-04-21 10:05 | 22.63440 | 88.70105 | 38687 ft | 555 kts | 105° |
| 2026-04-21 10:06 | 22.62066 | 88.78315 | 38682 ft | 553 kts | 105° |
| 2026-04-21 10:06 | 22.60691 | 88.86499 | 38672 ft | 552 kts | 105° |
| 2026-04-21 10:07 | 22.59337 | 88.94727 | 38675 ft | 560 kts | 101° |
| 2026-04-21 10:07 | 22.58432 | 89.03119 | 38697 ft | 561 kts | 101° |
| 2026-04-21 10:08 | 22.57502 | 89.11492 | 38697 ft | 561 kts | 101° |
| 2026-04-21 10:08 | 22.56589 | 89.19820 | 38697 ft | 561 kts | 101° |
| 2026-04-21 10:09 | 22.55654 | 89.28206 | 38693 ft | 561 kts | 101° |
| 2026-04-21 10:09 | 22.54719 | 89.36615 | 38696 ft | 563 kts | 101° |
| 2026-04-21 10:10 | 22.53777 | 89.45022 | 38700 ft | 563 kts | 101° |
| 2026-04-21 10:10 | 22.52834 | 89.53404 | 38698 ft | 561 kts | 101° |
| 2026-04-21 10:11 | 22.51888 | 89.61766 | 38696 ft | 559 kts | 102° |
| 2026-04-21 10:11 | 22.50939 | 89.70116 | 38699 ft | 560 kts | 102° |
| 2026-04-21 10:12 | 22.49991 | 89.78419 | 38697 ft | 560 kts | 102° |
| 2026-04-21 10:12 | 22.49026 | 89.86840 | 38700 ft | 561 kts | 102° |
| 2026-04-21 10:13 | 22.48060 | 89.95224 | 38702 ft | 562 kts | 102° |
| 2026-04-21 10:13 | 22.47096 | 90.03550 | 38700 ft | 560 kts | 101° |
| 2026-04-21 10:14 | 22.46128 | 90.11878 | 38696 ft | 557 kts | 101° |
| 2026-04-21 10:14 | 22.45157 | 90.20181 | 38711 ft | 556 kts | 101° |
| 2026-04-21 10:15 | 22.44185 | 90.28475 | 38716 ft | 556 kts | 101° |
| 2026-04-21 10:15 | 22.43208 | 90.36755 | 38723 ft | 556 kts | 101° |
| 2026-04-21 10:16 | 22.42228 | 90.45047 | 38715 ft | 555 kts | 101° |
| 2026-04-21 10:16 | 22.41250 | 90.53262 | 38710 ft | 554 kts | 101° |
| 2026-04-21 10:17 | 22.40263 | 90.61526 | 38717 ft | 555 kts | 101° |
| 2026-04-21 10:17 | 22.39270 | 90.69807 | 38723 ft | 556 kts | 101° |
| 2026-04-21 10:18 | 22.38271 | 90.78097 | 38721 ft | 557 kts | 101° |
| 2026-04-21 10:18 | 22.37269 | 90.86386 | 38725 ft | 555 kts | 101° |
| 2026-04-21 10:19 | 22.36264 | 90.94644 | 38725 ft | 554 kts | 101° |
| 2026-04-21 10:19 | 22.35259 | 91.02885 | 38727 ft | 553 kts | 101° |
| 2026-04-21 10:20 | 22.34249 | 91.11119 | 38735 ft | 554 kts | 101° |
| 2026-04-21 10:20 | 22.33232 | 91.19379 | 38733 ft | 555 kts | 101° |
| 2026-04-21 10:21 | 22.32217 | 91.27594 | 38738 ft | 555 kts | 101° |
| 2026-04-21 10:21 | 22.31190 | 91.35860 | 38753 ft | 555 kts | 101° |
| 2026-04-21 10:22 | 22.30206 | 91.44132 | 38755 ft | 556 kts | 100° |
| 2026-04-21 10:22 | 22.29291 | 91.52425 | 38754 ft | 556 kts | 101° |
| 2026-04-21 10:23 | 22.28320 | 91.60688 | 38751 ft | 553 kts | 100° |
| 2026-04-21 10:23 | 22.27384 | 91.68932 | 38745 ft | 552 kts | 100° |
| 2026-04-21 10:24 | 22.26423 | 91.77154 | 38739 ft | 552 kts | 100° |
| 2026-04-21 10:24 | 22.26160 | 91.85440 | 38764 ft | 557 kts | 82° |
| 2026-04-21 10:25 | 22.27306 | 91.93735 | 38788 ft | 559 kts | 82° |
| 2026-04-21 10:25 | 22.28463 | 92.01974 | 38783 ft | 557 kts | 82° |
| 2026-04-21 10:26 | 22.29603 | 92.10248 | 38782 ft | 557 kts | 82° |
| 2026-04-21 10:26 | 22.30750 | 92.18522 | 38784 ft | 556 kts | 82° |
| 2026-04-21 10:27 | 22.31885 | 92.26789 | 38780 ft | 557 kts | 82° |
| 2026-04-21 10:27 | 22.33020 | 92.35054 | 38779 ft | 555 kts | 82° |
| 2026-04-21 10:28 | 22.34145 | 92.43302 | 38779 ft | 555 kts | 82° |
| 2026-04-21 10:28 | 22.35265 | 92.51536 | 38788 ft | 556 kts | 82° |
| 2026-04-21 10:29 | 22.36385 | 92.59803 | 38802 ft | 556 kts | 82° |
| 2026-04-21 10:29 | 22.37500 | 92.68069 | 38799 ft | 557 kts | 82° |
| 2026-04-21 10:30 | 22.38615 | 92.76354 | 38816 ft | 557 kts | 82° |
| 2026-04-21 10:30 | 22.39734 | 92.84641 | 38820 ft | 556 kts | 82° |
| 2026-04-21 10:31 | 22.40847 | 92.92921 | 38836 ft | 555 kts | 82° |
| 2026-04-21 10:31 | 22.41953 | 93.01192 | 38839 ft | 557 kts | 82° |
| 2026-04-21 10:32 | 22.42872 | 93.08081 | 38874 ft | 556 kts | 82° |
| 2026-04-21 10:32 | 22.43969 | 93.16328 | 38861 ft | 558 kts | 82° |
| 2026-04-21 10:33 | 22.45069 | 93.24647 | 38882 ft | 560 kts | 82° |
| 2026-04-21 10:33 | 22.46172 | 93.32995 | 38863 ft | 559 kts | 82° |
| 2026-04-21 10:34 | 22.47260 | 93.41306 | 38847 ft | 558 kts | 82° |
| 2026-04-21 10:34 | 22.48351 | 93.49627 | 38850 ft | 559 kts | 82° |
| 2026-04-21 10:35 | 22.49427 | 93.57898 | 38808 ft | 558 kts | 82° |
| 2026-04-21 10:35 | 22.50508 | 93.66230 | 38808 ft | 558 kts | 82° |
| 2026-04-21 10:36 | 22.51581 | 93.74539 | 38806 ft | 557 kts | 82° |
| 2026-04-21 10:36 | 22.52650 | 93.82843 | 38759 ft | 558 kts | 82° |
| 2026-04-21 10:37 | 22.53713 | 93.91146 | 38750 ft | 557 kts | 82° |
| 2026-04-21 10:37 | 22.54771 | 93.99441 | 38711 ft | 558 kts | 82° |
| 2026-04-21 10:38 | 22.55829 | 94.07766 | 38712 ft | 558 kts | 82° |
| 2026-04-21 10:38 | 22.56882 | 94.16091 | 38691 ft | 559 kts | 82° |
| 2026-04-21 10:39 | 22.57930 | 94.24411 | 38677 ft | 554 kts | 82° |
| 2026-04-21 10:39 | 22.58956 | 94.32586 | 38682 ft | 550 kts | 82° |
| 2026-04-21 10:40 | 22.59985 | 94.40822 | 38679 ft | 553 kts | 82° |
| 2026-04-21 10:40 | 22.61010 | 94.49070 | 38683 ft | 553 kts | 82° |
| 2026-04-21 10:41 | 22.62032 | 94.57318 | 38687 ft | 553 kts | 82° |
| 2026-04-21 10:41 | 22.63051 | 94.65581 | 38696 ft | 553 kts | 82° |
| 2026-04-21 10:42 | 22.64065 | 94.73841 | 38692 ft | 553 kts | 82° |
| 2026-04-21 10:42 | 22.65075 | 94.82098 | 38694 ft | 553 kts | 82° |
| 2026-04-21 10:43 | 22.66079 | 94.90348 | 38692 ft | 552 kts | 82° |
| 2026-04-21 10:43 | 22.67071 | 94.98531 | 38683 ft | 552 kts | 82° |